createdAt,value
2019-05-30T00:02:14.384Z,9.28
2019-05-30T00:04:42.583Z,9.36
2019-05-30T00:07:11.398Z,9.19
2019-05-30T00:09:39.712Z,8.97
2019-05-30T00:12:07.945Z,9.11
2019-05-30T00:14:36.131Z,9.01
2019-05-30T00:17:05.137Z,9.02
2019-05-30T00:19:34.088Z,9.11
2019-05-30T00:22:03.890Z,9.13
2019-05-30T00:24:32.313Z,7.40
2019-05-30T00:27:00.461Z,8.89
2019-05-30T00:29:28.671Z,8.93
2019-05-30T00:31:57.459Z,8.98
2019-05-30T00:34:25.928Z,8.95
2019-05-30T00:36:54.099Z,8.92
2019-05-30T00:39:22.272Z,8.97
2019-05-30T00:41:50.632Z,8.92
2019-05-30T00:44:18.868Z,8.89
2019-05-30T00:46:47.036Z,8.63
2019-05-30T00:49:15.228Z,8.63
2019-05-30T00:51:43.452Z,8.66
2019-05-30T00:54:11.622Z,8.37
2019-05-30T00:56:39.821Z,8.44
2019-05-30T00:59:07.999Z,8.42
2019-05-30T01:01:36.213Z,8.17
2019-05-30T01:04:04.989Z,8.26
2019-05-30T01:06:33.135Z,8.53
2019-05-30T01:09:01.350Z,8.61
2019-05-30T01:11:29.515Z,8.55
2019-05-30T01:13:58.921Z,8.56
2019-05-30T01:16:27.210Z,8.53
2019-05-30T01:18:56.771Z,8.46
2019-05-30T01:21:25.464Z,8.62
2019-05-30T01:23:53.689Z,8.45
2019-05-30T01:26:21.969Z,8.46
2019-05-30T01:28:50.175Z,8.41
2019-05-30T01:31:18.412Z,8.33
2019-05-30T01:33:46.639Z,8.40
2019-05-30T01:36:14.784Z,8.56
2019-05-30T01:38:43.004Z,8.15
2019-05-30T01:41:11.173Z,8.32
2019-05-30T01:43:39.560Z,8.36
2019-05-30T01:46:08.389Z,8.40
2019-05-30T01:48:36.655Z,8.16
2019-05-30T01:51:04.989Z,8.02
2019-05-30T01:53:33.160Z,8.03
2019-05-30T01:56:02.596Z,7.98
2019-05-30T01:58:30.889Z,8.01
2019-05-30T02:01:13.585Z,8.28
2019-05-30T02:03:29.018Z,8.01
2019-05-30T02:05:57.289Z,8.22
2019-05-30T02:08:25.525Z,7.89
2019-05-30T02:10:53.783Z,8.08
2019-05-30T02:13:22.133Z,8.15
2019-05-30T02:15:50.826Z,7.96
2019-05-30T02:18:19.008Z,7.74
2019-05-30T02:20:47.276Z,8.13
2019-05-30T02:23:15.464Z,8.28
2019-05-30T02:25:43.645Z,8.01
2019-05-30T02:28:11.841Z,7.69
2019-05-30T02:30:40.192Z,7.82
2019-05-30T02:33:10.526Z,7.83
2019-05-30T02:35:38.411Z,7.67
2019-05-30T02:38:07.382Z,7.72
2019-05-30T02:40:36.121Z,7.74
2019-05-30T02:43:05.763Z,7.73
2019-05-30T02:45:34.536Z,7.58
2019-05-30T02:48:03.255Z,8.06
2019-05-30T02:50:32.661Z,7.81
2019-05-30T02:53:01.236Z,7.81
2019-05-30T02:55:29.412Z,7.86
2019-05-30T02:57:57.640Z,7.78
2019-05-30T03:00:34.215Z,7.87
2019-05-30T03:03:03.954Z,7.86
2019-05-30T03:05:32.299Z,7.78
2019-05-30T03:08:02.088Z,7.83
2019-05-30T03:10:30.274Z,7.74
2019-05-30T03:12:59.023Z,7.68
2019-05-30T03:15:28.002Z,8.09
2019-05-30T03:17:56.229Z,7.98
2019-05-30T03:20:24.500Z,8.11
2019-05-30T03:22:52.708Z,8.06
2019-05-30T03:25:20.898Z,7.99
2019-05-30T03:27:49.144Z,7.97
2019-05-30T03:30:26.800Z,7.88
2019-05-30T03:33:05.395Z,7.88
2019-05-30T03:35:27.529Z,7.83
2019-05-30T03:37:47.993Z,7.82
2019-05-30T03:40:18.256Z,7.74
2019-05-30T03:42:46.155Z,7.87
2019-05-30T03:45:16.592Z,7.89
2019-05-30T03:47:48.106Z,7.96
2019-05-30T03:50:18.455Z,7.87
2019-05-30T03:52:46.710Z,7.83
2019-05-30T03:55:17.568Z,7.80
2019-05-30T03:57:50.642Z,7.91
2019-05-30T04:00:27.924Z,8.09
2019-05-30T04:03:02.017Z,8.06
2019-05-30T04:05:35.046Z,8.27
2019-05-30T04:08:06.942Z,8.33
2019-05-30T04:10:39.075Z,8.42
2019-05-30T04:13:31.315Z,8.55
2019-05-30T04:15:59.528Z,8.57
2019-05-30T04:18:27.675Z,8.61
2019-05-30T04:20:55.821Z,8.66
2019-05-30T04:23:24.046Z,8.71
2019-05-30T04:25:52.222Z,8.80
2019-05-30T04:28:20.406Z,8.92
2019-05-30T04:30:48.609Z,9.13
2019-05-30T04:33:31.649Z,9.25
2019-05-30T04:35:46.674Z,9.35
2019-05-30T04:38:14.944Z,9.45
2019-05-30T04:40:43.337Z,9.76
2019-05-30T04:43:13.338Z,10.17
2019-05-30T04:45:41.446Z,10.44
2019-05-30T04:48:09.867Z,10.62
2019-05-30T04:50:37.991Z,10.82
2019-05-30T04:53:06.203Z,10.95
2019-05-30T04:55:34.388Z,11.07
2019-05-30T04:58:02.677Z,11.15
2019-05-30T05:00:30.816Z,11.21
2019-05-30T05:02:58.940Z,11.20
2019-05-30T05:05:27.244Z,11.33
2019-05-30T05:07:55.375Z,11.41
2019-05-30T05:10:23.642Z,11.51
2019-05-30T05:12:51.799Z,11.58
2019-05-30T05:15:20.685Z,11.68
2019-05-30T05:17:49.008Z,11.75
2019-05-30T05:20:17.349Z,11.79
2019-05-30T05:22:45.570Z,11.87
2019-05-30T05:25:15.399Z,11.93
2019-05-30T05:27:43.783Z,11.94
2019-05-30T05:30:13.982Z,12.02
2019-05-30T05:32:42.158Z,12.00
2019-05-30T05:35:11.629Z,12.05
2019-05-30T05:37:39.961Z,12.09
2019-05-30T05:40:08.669Z,12.19
2019-05-30T05:42:36.876Z,12.27
2019-05-30T05:45:06.067Z,12.35
2019-05-30T05:47:34.241Z,12.38
2019-05-30T05:50:02.412Z,12.51
2019-05-30T05:52:30.592Z,12.61
2019-05-30T05:54:58.797Z,12.66
2019-05-30T05:57:26.988Z,12.72
2019-05-30T05:59:55.314Z,12.76
2019-05-30T06:02:23.509Z,12.89
2019-05-30T06:04:51.769Z,12.88
2019-05-30T06:07:20.293Z,12.99
2019-05-30T06:09:48.545Z,13.07
2019-05-30T06:12:17.574Z,13.25
2019-05-30T06:14:45.946Z,13.36
2019-05-30T06:17:14.272Z,13.52
2019-05-30T06:19:46.385Z,13.69
2019-05-30T06:22:12.355Z,13.83
2019-05-30T06:24:40.513Z,13.85
2019-05-30T06:27:08.772Z,13.98
2019-05-30T06:29:36.990Z,14.05
2019-05-30T06:32:05.185Z,14.13
2019-05-30T06:34:39.301Z,14.24
2019-05-30T06:37:03.319Z,14.24
2019-05-30T06:39:31.590Z,14.37
2019-05-30T06:41:59.798Z,14.45
2019-05-30T06:44:28.155Z,14.55
2019-05-30T06:46:56.322Z,14.70
2019-05-30T06:49:24.800Z,14.54
2019-05-30T06:51:53.164Z,14.80
2019-05-30T06:54:21.860Z,14.80
2019-05-30T06:56:51.117Z,15.00
2019-05-30T06:59:19.333Z,14.97
2019-05-30T07:01:47.494Z,14.77
2019-05-30T07:04:16.212Z,15.04
2019-05-30T07:06:44.986Z,15.11
2019-05-30T07:09:13.429Z,15.26
2019-05-30T07:11:41.585Z,15.61
2019-05-30T07:14:09.804Z,15.73
2019-05-30T07:16:38.061Z,15.78
2019-05-30T07:19:06.292Z,15.82
2019-05-30T07:21:34.482Z,15.82
2019-05-30T07:24:02.681Z,16.22
2019-05-30T07:26:31.908Z,16.55
2019-05-30T07:29:00.879Z,16.60
2019-05-30T07:31:30.226Z,16.14
2019-05-30T07:33:58.458Z,16.48
2019-05-30T07:36:26.686Z,16.69
2019-05-30T07:38:54.843Z,16.44
2019-05-30T07:41:23.125Z,16.56
2019-05-30T07:43:52.594Z,16.73
2019-05-30T07:46:20.809Z,17.09
2019-05-30T07:48:49.056Z,16.80
2019-05-30T07:51:17.844Z,17.17
2019-05-30T07:53:46.000Z,16.42
2019-05-30T07:56:14.199Z,16.51
2019-05-30T07:58:42.372Z,17.36
2019-05-30T08:01:10.539Z,17.41
2019-05-30T08:03:38.949Z,17.70
2019-05-30T08:06:07.028Z,17.54
2019-05-30T08:08:36.136Z,18.12
2019-05-30T08:11:09.387Z,17.77
2019-05-30T08:13:35.270Z,18.46
2019-05-30T08:16:03.632Z,18.54
2019-05-30T08:18:31.877Z,18.14
2019-05-30T08:21:00.115Z,18.14
2019-05-30T08:23:28.328Z,18.24
2019-05-30T08:25:56.658Z,18.21
2019-05-30T08:28:24.842Z,18.56
2019-05-30T08:30:56.696Z,18.90
2019-05-30T08:33:23.059Z,18.78
2019-05-30T08:35:51.304Z,18.56
2019-05-30T08:38:19.588Z,18.56
2019-05-30T08:40:47.890Z,18.60
2019-05-30T08:43:16.112Z,19.31
2019-05-30T08:45:44.541Z,19.49
2019-05-30T08:48:12.695Z,20.16
2019-05-30T08:50:44.257Z,19.93
2019-05-30T08:53:09.958Z,19.73
2019-05-30T08:55:38.605Z,19.89
2019-05-30T08:58:06.949Z,20.08
2019-05-30T09:00:35.177Z,20.26
2019-05-30T09:03:04.788Z,19.66
2019-05-30T09:05:33.059Z,19.95
2019-05-30T09:08:01.395Z,19.24
2019-05-30T09:10:29.570Z,19.56
2019-05-30T09:12:57.888Z,20.29
2019-05-30T09:15:26.187Z,18.27
2019-05-30T09:17:54.374Z,20.41
2019-05-30T09:20:22.720Z,20.92
2019-05-30T09:22:50.889Z,20.38
2019-05-30T09:25:19.613Z,21.05
2019-05-30T09:27:48.363Z,21.41
2019-05-30T09:30:18.865Z,21.56
2019-05-30T09:32:47.220Z,20.19
2019-05-30T09:35:17.331Z,20.05
2019-05-30T09:37:46.076Z,20.08
2019-05-30T09:40:15.752Z,19.34
2019-05-30T09:42:44.749Z,18.98
2019-05-30T09:45:15.428Z,19.81
2019-05-30T09:47:46.641Z,19.55
2019-05-30T09:50:13.998Z,20.23
2019-05-30T09:52:43.508Z,18.08
2019-05-30T09:55:12.569Z,17.97
2019-05-30T09:57:42.405Z,19.67
2019-05-30T10:00:10.647Z,19.29
2019-05-30T10:02:38.862Z,20.24
2019-05-30T10:05:07.959Z,20.47
2019-05-30T10:07:36.243Z,20.83
2019-05-30T10:10:05.134Z,20.34
2019-05-30T10:12:33.370Z,20.35
2019-05-30T10:15:01.652Z,19.99
2019-05-30T10:17:29.872Z,20.57
2019-05-30T10:19:58.014Z,20.85
2019-05-30T10:22:26.186Z,20.85
2019-05-30T10:24:54.442Z,20.63
2019-05-30T10:27:22.652Z,20.75
2019-05-30T10:29:51.285Z,20.74
2019-05-30T10:32:19.457Z,20.15
2019-05-30T10:34:47.981Z,19.35
2019-05-30T10:37:16.283Z,20.43
2019-05-30T10:39:45.563Z,20.98
2019-05-30T10:42:14.177Z,20.98
2019-05-30T10:44:42.508Z,20.23
2019-05-30T10:47:10.790Z,20.17
2019-05-30T10:49:39.049Z,20.08
2019-05-30T10:52:07.290Z,20.20
2019-05-30T10:54:35.564Z,19.09
2019-05-30T10:57:03.915Z,19.92
2019-05-30T10:59:32.138Z,19.95
2019-05-30T11:02:00.422Z,18.81
2019-05-30T11:04:28.695Z,20.08
2019-05-30T11:07:11.743Z,19.99
2019-05-30T11:09:41.845Z,20.71
2019-05-30T11:12:10.089Z,20.63
2019-05-30T11:14:39.017Z,20.02
2019-05-30T11:17:07.350Z,19.80
2019-05-30T11:19:35.793Z,19.58
2019-05-30T11:22:04.084Z,20.27
2019-05-30T11:24:32.414Z,20.40
2019-05-30T11:27:00.641Z,20.88
2019-05-30T11:29:28.830Z,20.35
2019-05-30T11:31:57.159Z,21.29
2019-05-30T11:34:25.338Z,19.99
2019-05-30T11:36:53.695Z,20.86
2019-05-30T11:39:21.870Z,21.36
2019-05-30T11:41:51.186Z,20.17
2019-05-30T11:44:19.451Z,21.26
2019-05-30T11:46:47.735Z,22.00
2019-05-30T11:49:15.945Z,21.55
2019-05-30T11:51:44.244Z,21.01
2019-05-30T11:54:12.470Z,20.34
2019-05-30T11:56:40.695Z,21.67
2019-05-30T11:59:08.860Z,21.07
2019-05-30T12:01:37.069Z,21.20
2019-05-30T12:04:05.310Z,21.75
2019-05-30T12:06:33.446Z,21.85
2019-05-30T12:09:01.836Z,22.72
2019-05-30T12:11:30.028Z,22.74
2019-05-30T12:13:59.415Z,23.36
2019-05-30T12:16:27.715Z,23.79
2019-05-30T12:18:55.926Z,22.38
2019-05-30T12:21:24.200Z,22.45
2019-05-30T12:23:52.334Z,23.30
2019-05-30T12:26:20.590Z,22.48
2019-05-30T12:28:48.791Z,22.49
2019-05-30T12:31:17.112Z,22.43
2019-05-30T12:33:45.293Z,21.82
2019-05-30T12:36:13.647Z,22.82
2019-05-30T12:38:41.816Z,22.95
2019-05-30T12:41:10.189Z,22.35
2019-05-30T12:43:38.450Z,20.50
2019-05-30T12:46:06.669Z,21.87
2019-05-30T12:48:34.897Z,20.48
2019-05-30T12:51:03.537Z,22.02
2019-05-30T12:53:31.791Z,22.51
2019-05-30T12:56:00.561Z,23.30
2019-05-30T12:58:28.897Z,22.45
2019-05-30T13:00:57.159Z,20.60
2019-05-30T13:03:25.423Z,19.58
2019-05-30T13:05:55.003Z,21.29
2019-05-30T13:08:23.358Z,21.32
2019-05-30T13:10:51.828Z,20.00
2019-05-30T13:13:20.066Z,21.95
2019-05-30T13:15:48.442Z,20.94
2019-05-30T13:18:16.748Z,19.83
2019-05-30T13:20:44.914Z,19.66
2019-05-30T13:23:13.163Z,21.20
2019-05-30T13:25:41.397Z,21.88
2019-05-30T13:28:09.584Z,22.12
2019-05-30T13:30:37.873Z,22.25
2019-05-30T13:33:08.814Z,20.25
2019-05-30T13:35:37.049Z,19.44
2019-05-30T13:38:05.413Z,20.27
2019-05-30T13:40:33.663Z,20.63
2019-05-30T13:43:02.019Z,19.73
2019-05-30T13:45:30.341Z,19.56
2019-05-30T13:47:58.568Z,20.12
2019-05-30T13:50:26.903Z,20.58
2019-05-30T13:52:55.165Z,20.05
2019-05-30T13:55:23.407Z,19.61
2019-05-30T13:57:51.606Z,18.96
2019-05-30T14:00:21.225Z,20.03
2019-05-30T14:02:49.410Z,20.34
2019-05-30T14:05:18.235Z,20.51
2019-05-30T14:07:46.401Z,20.72
2019-05-30T14:10:14.825Z,20.24
2019-05-30T14:12:43.004Z,20.19
2019-05-30T14:15:14.326Z,19.11
2019-05-30T14:17:41.889Z,19.19
2019-05-30T14:20:11.522Z,20.06
2019-05-30T14:22:40.060Z,19.60
2019-05-30T14:25:09.693Z,20.37
2019-05-30T14:27:37.986Z,19.79
2019-05-30T14:30:06.900Z,20.91
2019-05-30T14:32:35.138Z,20.87
2019-05-30T14:35:04.118Z,20.68
2019-05-30T14:37:32.292Z,21.36
2019-05-30T14:40:00.546Z,20.78
2019-05-30T14:42:28.841Z,20.75
2019-05-30T14:44:57.124Z,21.42
2019-05-30T14:47:25.349Z,19.46
2019-05-30T14:49:53.509Z,19.90
2019-05-30T14:52:21.688Z,20.54
2019-05-30T14:54:49.893Z,21.07
2019-05-30T14:57:18.106Z,19.33
2019-05-30T14:59:46.395Z,19.99
2019-05-30T15:02:14.654Z,18.88
2019-05-30T15:04:42.868Z,19.07
2019-05-30T15:07:11.404Z,20.70
2019-05-30T15:09:42.499Z,21.78
2019-05-30T15:12:08.771Z,20.57
2019-05-30T15:14:36.906Z,21.20
2019-05-30T15:17:05.920Z,22.20
2019-05-30T15:19:34.372Z,21.22
2019-05-30T15:22:02.570Z,20.38
2019-05-30T15:24:30.758Z,20.69
2019-05-30T15:26:58.937Z,21.20
2019-05-30T15:29:27.256Z,21.51
2019-05-30T15:31:55.498Z,21.57
2019-05-30T15:34:23.702Z,21.34
2019-05-30T15:36:51.891Z,21.15
2019-05-30T15:39:32.464Z,21.91
2019-05-30T15:41:50.023Z,22.72
2019-05-30T15:44:18.269Z,22.03
2019-05-30T15:46:46.534Z,20.09
2019-05-30T15:49:16.376Z,19.91
2019-05-30T15:51:44.688Z,20.52
2019-05-30T15:54:12.994Z,20.97
2019-05-30T15:56:42.431Z,20.70
2019-05-30T15:59:11.616Z,19.08
2019-05-30T16:01:39.919Z,20.96
2019-05-30T16:04:08.167Z,20.27
2019-05-30T16:06:36.354Z,19.95
2019-05-30T16:09:06.363Z,20.49
2019-05-30T16:11:34.794Z,20.51
2019-05-30T16:14:03.067Z,19.50
2019-05-30T16:16:39.382Z,19.34
2019-05-30T16:19:14.950Z,20.07
2019-05-30T16:21:30.167Z,20.46
2019-05-30T16:23:58.527Z,18.75
2019-05-30T16:26:26.824Z,19.19
2019-05-30T16:28:55.118Z,19.64
2019-05-30T16:31:23.422Z,19.23
2019-05-30T16:33:51.694Z,19.30
2019-05-30T16:36:20.316Z,19.09
2019-05-30T16:38:48.704Z,19.24
2019-05-30T16:41:18.166Z,19.71
2019-05-30T16:43:46.497Z,19.26
2019-05-30T16:46:14.899Z,20.44
2019-05-30T16:48:43.118Z,18.21
2019-05-30T16:51:11.402Z,18.78
2019-05-30T16:53:39.690Z,19.81
2019-05-30T16:56:08.084Z,19.91
2019-05-30T16:58:36.325Z,19.89
2019-05-30T17:01:04.573Z,19.83
2019-05-30T17:03:32.913Z,19.78
2019-05-30T17:06:01.130Z,20.10
2019-05-30T17:08:29.533Z,20.61
2019-05-30T17:10:57.776Z,20.54
2019-05-30T17:13:26.033Z,19.42
2019-05-30T17:15:54.293Z,20.41
2019-05-30T17:18:22.633Z,19.67
2019-05-30T17:20:50.803Z,20.57
2019-05-30T17:23:19.036Z,20.33
2019-05-30T17:25:47.243Z,18.96
2019-05-30T17:28:15.380Z,19.25
2019-05-30T17:30:43.619Z,20.62
2019-05-30T17:33:11.896Z,19.60
2019-05-30T17:35:40.146Z,20.03
2019-05-30T17:38:08.397Z,18.97
2019-05-30T17:40:44.451Z,19.86
2019-05-30T17:43:05.605Z,19.53
2019-05-30T17:45:33.836Z,19.88
2019-05-30T17:48:15.660Z,18.95
2019-05-30T17:50:32.058Z,19.64
2019-05-30T17:53:00.327Z,19.55
2019-05-30T17:55:28.531Z,19.90
2019-05-30T17:57:57.002Z,20.75
2019-05-30T18:00:26.443Z,19.52
2019-05-30T18:02:54.810Z,19.15
2019-05-30T18:05:24.461Z,19.27
2019-05-30T18:07:52.901Z,19.66
2019-05-30T18:10:21.368Z,19.78
2019-05-30T18:12:49.588Z,19.51
2019-05-30T18:15:19.356Z,19.80
2019-05-30T18:17:47.591Z,20.19
2019-05-30T18:20:15.968Z,19.33
2019-05-30T18:22:44.357Z,19.48
2019-05-30T18:25:14.375Z,18.46
2019-05-30T18:27:41.772Z,18.79
2019-05-30T18:30:12.875Z,19.27
2019-05-30T18:32:41.028Z,19.03
2019-05-30T18:35:10.585Z,19.22
2019-05-30T18:37:39.413Z,19.86
2019-05-30T18:40:09.903Z,19.77
2019-05-30T18:42:39.192Z,20.07
2019-05-30T18:45:08.205Z,19.55
2019-05-30T18:47:36.448Z,19.51
2019-05-30T18:50:05.128Z,18.52
2019-05-30T18:52:33.423Z,18.79
2019-05-30T18:55:05.017Z,19.65
2019-05-30T18:57:30.980Z,19.44
2019-05-30T18:59:59.193Z,20.03
2019-05-30T19:02:27.524Z,19.57
2019-05-30T19:04:55.936Z,20.00
2019-05-30T19:07:24.695Z,19.61
2019-05-30T19:09:53.028Z,19.89
2019-05-30T19:12:24.069Z,20.08
2019-05-30T19:14:50.252Z,19.83
2019-05-30T19:17:18.592Z,19.70
2019-05-30T19:19:46.851Z,19.69
2019-05-30T19:22:15.436Z,19.18
2019-05-30T19:24:43.871Z,19.89
2019-05-30T19:27:12.277Z,20.00
2019-05-30T19:29:40.510Z,19.83
2019-05-30T19:32:08.773Z,19.57
2019-05-30T19:34:37.341Z,19.56
2019-05-30T19:37:05.541Z,19.62
2019-05-30T19:39:33.977Z,19.09
2019-05-30T19:42:02.170Z,18.85
2019-05-30T19:44:30.372Z,19.06
2019-05-30T19:46:58.543Z,18.95
2019-05-30T19:49:28.241Z,18.78
2019-05-30T19:51:56.811Z,19.03
2019-05-30T19:54:25.134Z,19.07
2019-05-30T19:56:53.638Z,18.93
2019-05-30T19:59:21.899Z,18.92
2019-05-30T20:01:50.192Z,18.78
2019-05-30T20:04:18.453Z,18.66
2019-05-30T20:06:46.843Z,18.47
2019-05-30T20:09:15.334Z,17.02
2019-05-30T20:11:43.646Z,17.83
2019-05-30T20:14:12.101Z,17.64
2019-05-30T20:16:40.444Z,17.70
2019-05-30T20:19:08.906Z,18.02
2019-05-30T20:21:37.827Z,17.52
2019-05-30T20:24:06.067Z,17.53
2019-05-30T20:26:34.490Z,17.69
2019-05-30T20:29:02.820Z,17.66
2019-05-30T20:31:31.537Z,17.46
2019-05-30T20:33:59.738Z,17.20
2019-05-30T20:36:27.994Z,16.58
2019-05-30T20:38:56.227Z,17.12
2019-05-30T20:41:24.409Z,17.09
2019-05-30T20:43:52.685Z,17.00
2019-05-30T20:46:23.937Z,16.97
2019-05-30T20:48:52.263Z,15.97
2019-05-30T20:51:21.668Z,16.06
2019-05-30T20:53:50.052Z,16.68
2019-05-30T20:56:18.317Z,16.85
2019-05-30T20:58:46.643Z,16.63
2019-05-30T21:01:15.011Z,16.59
2019-05-30T21:03:43.730Z,16.63
2019-05-30T21:06:14.059Z,16.55
2019-05-30T21:08:43.196Z,16.51
2019-05-30T21:11:12.715Z,16.51
2019-05-30T21:13:42.330Z,16.47
2019-05-30T21:16:13.194Z,16.38
2019-05-30T21:19:01.895Z,16.33
2019-05-30T21:21:30.439Z,16.34
2019-05-30T21:23:58.717Z,16.31
2019-05-30T21:26:36.689Z,16.25
2019-05-30T21:29:05.293Z,16.19
2019-05-30T21:31:33.929Z,16.19
2019-05-30T21:34:02.206Z,16.15
2019-05-30T21:36:30.523Z,16.08
2019-05-30T21:38:58.855Z,16.07
2019-05-30T21:41:27.189Z,15.97
2019-05-30T21:43:55.744Z,14.12
2019-05-30T21:46:24.103Z,15.46
2019-05-30T21:48:52.534Z,15.46
2019-05-30T21:51:20.827Z,15.37
2019-05-30T21:53:49.736Z,15.71
2019-05-30T21:56:18.175Z,15.48
2019-05-30T21:58:46.468Z,15.29
2019-05-30T22:01:34.629Z,15.28
2019-05-30T22:04:03.202Z,15.24
2019-05-30T22:06:31.939Z,15.54
2019-05-30T22:09:03.199Z,15.68
2019-05-30T22:11:30.090Z,15.57
2019-05-30T22:13:58.298Z,15.72
2019-05-30T22:16:26.498Z,15.31
2019-05-30T22:18:54.771Z,15.62
2019-05-30T22:21:23.120Z,15.28
2019-05-30T22:23:52.537Z,15.25
2019-05-30T22:26:21.202Z,15.30
2019-05-30T22:28:50.507Z,15.25
2019-05-30T22:31:19.035Z,15.48
2019-05-30T22:33:47.310Z,15.34
2019-05-30T22:36:15.808Z,15.48
2019-05-30T22:38:44.858Z,15.29
2019-05-30T22:41:13.056Z,15.20
2019-05-30T22:43:41.389Z,15.16
2019-05-30T22:46:09.905Z,15.01
2019-05-30T22:48:38.121Z,15.12
2019-05-30T22:51:06.330Z,15.18
2019-05-30T22:53:34.602Z,15.25
2019-05-30T22:56:02.972Z,15.44
2019-05-30T22:58:31.358Z,15.44
2019-05-30T23:00:59.528Z,15.69
2019-05-30T23:03:27.782Z,15.75
2019-05-30T23:05:57.377Z,15.82
2019-05-30T23:08:26.140Z,15.82
2019-05-30T23:10:55.831Z,15.85
2019-05-30T23:13:24.043Z,15.86
2019-05-30T23:15:52.848Z,15.89
2019-05-30T23:18:21.226Z,15.84
2019-05-30T23:20:50.645Z,15.94
2019-05-30T23:23:18.862Z,15.98
2019-05-30T23:25:47.222Z,16.04
2019-05-30T23:28:15.634Z,16.04
2019-05-30T23:30:43.964Z,16.16
2019-05-30T23:33:12.363Z,16.13
2019-05-30T23:35:40.492Z,16.10
2019-05-30T23:38:08.836Z,16.15
2019-05-30T23:40:37.049Z,16.14
2019-05-30T23:43:05.443Z,16.17
2019-05-30T23:45:33.872Z,16.22
2019-05-30T23:48:02.205Z,16.25
2019-05-30T23:50:30.706Z,16.13
2019-05-30T23:53:00.351Z,16.13
2019-05-30T23:55:28.827Z,16.09
2019-05-30T23:57:57.258Z,16.09
